sensor_id;sensor_type;location;lat;lon;timestamp;P1;durP1;ratioP1;P2;durP2;ratioP2
9783;SDS011;4931;44.874;-1.092;2023-05-23T00:00:19;19.05;;;15.45;;
9783;SDS011;4931;44.874;-1.092;2023-05-23T00:02:46;17.73;;;13.98;;
9783;SDS011;4931;44.874;-1.092;2023-05-23T00:05:12;19.48;;;14.68;;
9783;SDS011;4931;44.874;-1.092;2023-05-23T00:07:39;17.48;;;13.60;;
9783;SDS011;4931;44.874;-1.092;2023-05-23T00:10:05;21.33;;;15.45;;
9783;SDS011;4931;44.874;-1.092;2023-05-23T00:12:31;20.58;;;15.75;;
9783;SDS011;4931;44.874;-1.092;2023-05-23T00:14:57;16.98;;;14.65;;
9783;SDS011;4931;44.874;-1.092;2023-05-23T00:17:23;20.02;;;15.70;;
9783;SDS011;4931;44.874;-1.092;2023-05-23T00:19:52;18.60;;;14.45;;
9783;SDS011;4931;44.874;-1.092;2023-05-23T00:22:20;18.60;;;15.07;;
9783;SDS011;4931;44.874;-1.092;2023-05-23T00:24:46;20.85;;;16.90;;
9783;SDS011;4931;44.874;-1.092;2023-05-23T00:27:11;18.30;;;15.48;;
9783;SDS011;4931;44.874;-1.092;2023-05-23T00:29:37;16.58;;;14.77;;
9783;SDS011;4931;44.874;-1.092;2023-05-23T00:32:02;18.85;;;14.90;;
9783;SDS011;4931;44.874;-1.092;2023-05-23T00:34:28;16.92;;;14.82;;
9783;SDS011;4931;44.874;-1.092;2023-05-23T00:36:53;17.80;;;15.68;;
9783;SDS011;4931;44.874;-1.092;2023-05-23T00:39:19;18.55;;;16.55;;
9783;SDS011;4931;44.874;-1.092;2023-05-23T00:41:48;16.85;;;15.15;;
9783;SDS011;4931;44.874;-1.092;2023-05-23T00:44:14;17.73;;;15.93;;
9783;SDS011;4931;44.874;-1.092;2023-05-23T00:46:44;18.85;;;15.48;;
9783;SDS011;4931;44.874;-1.092;2023-05-23T00:49:13;18.95;;;15.40;;
9783;SDS011;4931;44.874;-1.092;2023-05-23T00:51:39;18.25;;;15.07;;
9783;SDS011;4931;44.874;-1.092;2023-05-23T00:54:07;19.83;;;15.90;;
9783;SDS011;4931;44.874;-1.092;2023-05-23T00:56:33;17.35;;;15.32;;
9783;SDS011;4931;44.874;-1.092;2023-05-23T00:59:00;22.10;;;16.02;;
9783;SDS011;4931;44.874;-1.092;2023-05-23T01:01:26;21.63;;;16.67;;
9783;SDS011;4931;44.874;-1.092;2023-05-23T01:03:52;20.75;;;16.48;;
9783;SDS011;4931;44.874;-1.092;2023-05-23T01:06:19;18.95;;;16.33;;
9783;SDS011;4931;44.874;-1.092;2023-05-23T01:08:45;19.13;;;15.35;;
9783;SDS011;4931;44.874;-1.092;2023-05-23T01:11:16;18.98;;;16.40;;
9783;SDS011;4931;44.874;-1.092;2023-05-23T01:13:51;22.02;;;17.17;;
9783;SDS011;4931;44.874;-1.092;2023-05-23T01:19:05;19.02;;;16.50;;
9783;SDS011;4931;44.874;-1.092;2023-05-23T01:21:38;22.55;;;18.00;;
9783;SDS011;4931;44.874;-1.092;2023-05-23T01:24:09;23.10;;;18.15;;
9783;SDS011;4931;44.874;-1.092;2023-05-23T01:27:04;24.13;;;18.45;;
9783;SDS011;4931;44.874;-1.092;2023-05-23T01:29:44;28.23;;;21.25;;
9783;SDS011;4931;44.874;-1.092;2023-05-23T01:32:11;29.85;;;20.77;;
9783;SDS011;4931;44.874;-1.092;2023-05-23T01:34:40;29.63;;;21.38;;
9783;SDS011;4931;44.874;-1.092;2023-05-23T01:37:07;27.63;;;21.67;;
9783;SDS011;4931;44.874;-1.092;2023-05-23T01:39:34;28.00;;;22.40;;
9783;SDS011;4931;44.874;-1.092;2023-05-23T01:42:00;30.08;;;23.85;;
9783;SDS011;4931;44.874;-1.092;2023-05-23T01:44:26;32.75;;;22.60;;
9783;SDS011;4931;44.874;-1.092;2023-05-23T01:46:52;32.53;;;23.13;;
9783;SDS011;4931;44.874;-1.092;2023-05-23T01:49:17;29.80;;;22.00;;
9783;SDS011;4931;44.874;-1.092;2023-05-23T01:51:45;33.72;;;23.92;;
9783;SDS011;4931;44.874;-1.092;2023-05-23T01:54:10;30.58;;;22.48;;
9783;SDS011;4931;44.874;-1.092;2023-05-23T01:56:38;29.70;;;23.10;;
9783;SDS011;4931;44.874;-1.092;2023-05-23T01:59:05;31.95;;;23.75;;
9783;SDS011;4931;44.874;-1.092;2023-05-23T02:01:32;30.55;;;23.23;;
9783;SDS011;4931;44.874;-1.092;2023-05-23T02:03:58;32.95;;;23.63;;
9783;SDS011;4931;44.874;-1.092;2023-05-23T02:06:23;30.67;;;22.67;;
9783;SDS011;4931;44.874;-1.092;2023-05-23T02:08:49;30.15;;;23.58;;
9783;SDS011;4931;44.874;-1.092;2023-05-23T02:11:15;29.52;;;22.92;;
9783;SDS011;4931;44.874;-1.092;2023-05-23T02:13:40;31.15;;;23.40;;
9783;SDS011;4931;44.874;-1.092;2023-05-23T02:16:06;32.08;;;23.33;;
9783;SDS011;4931;44.874;-1.092;2023-05-23T02:18:32;29.77;;;22.50;;
9783;SDS011;4931;44.874;-1.092;2023-05-23T02:20:57;30.73;;;23.45;;
9783;SDS011;4931;44.874;-1.092;2023-05-23T02:23:23;32.80;;;23.42;;
9783;SDS011;4931;44.874;-1.092;2023-05-23T02:25:48;30.35;;;22.92;;
9783;SDS011;4931;44.874;-1.092;2023-05-23T02:28:14;33.05;;;24.38;;
9783;SDS011;4931;44.874;-1.092;2023-05-23T02:30:40;32.95;;;24.35;;
9783;SDS011;4931;44.874;-1.092;2023-05-23T02:33:05;28.45;;;23.23;;
9783;SDS011;4931;44.874;-1.092;2023-05-23T02:35:32;34.40;;;23.48;;
9783;SDS011;4931;44.874;-1.092;2023-05-23T02:37:58;32.50;;;23.70;;
9783;SDS011;4931;44.874;-1.092;2023-05-23T02:40:23;32.05;;;24.00;;
9783;SDS011;4931;44.874;-1.092;2023-05-23T02:42:49;32.20;;;22.08;;
9783;SDS011;4931;44.874;-1.092;2023-05-23T02:45:16;33.53;;;23.70;;
9783;SDS011;4931;44.874;-1.092;2023-05-23T02:47:42;28.95;;;22.10;;
9783;SDS011;4931;44.874;-1.092;2023-05-23T02:50:07;32.72;;;22.67;;
9783;SDS011;4931;44.874;-1.092;2023-05-23T02:52:33;32.03;;;23.20;;
9783;SDS011;4931;44.874;-1.092;2023-05-23T02:54:59;31.02;;;22.23;;
9783;SDS011;4931;44.874;-1.092;2023-05-23T02:57:24;31.50;;;22.40;;
9783;SDS011;4931;44.874;-1.092;2023-05-23T02:59:50;31.42;;;21.63;;
9783;SDS011;4931;44.874;-1.092;2023-05-23T03:02:15;31.70;;;21.77;;
9783;SDS011;4931;44.874;-1.092;2023-05-23T03:04:41;29.73;;;21.08;;
9783;SDS011;4931;44.874;-1.092;2023-05-23T03:07:06;31.05;;;22.13;;
9783;SDS011;4931;44.874;-1.092;2023-05-23T03:09:33;27.35;;;20.98;;
9783;SDS011;4931;44.874;-1.092;2023-05-23T03:11:59;28.70;;;20.90;;
9783;SDS011;4931;44.874;-1.092;2023-05-23T03:14:25;28.52;;;20.80;;
9783;SDS011;4931;44.874;-1.092;2023-05-23T03:16:50;28.00;;;19.42;;
9783;SDS011;4931;44.874;-1.092;2023-05-23T03:19:16;26.20;;;19.65;;
9783;SDS011;4931;44.874;-1.092;2023-05-23T03:21:41;30.33;;;20.85;;
9783;SDS011;4931;44.874;-1.092;2023-05-23T03:24:08;29.88;;;19.65;;
9783;SDS011;4931;44.874;-1.092;2023-05-23T03:26:33;27.63;;;19.75;;
9783;SDS011;4931;44.874;-1.092;2023-05-23T03:28:59;29.75;;;20.83;;
9783;SDS011;4931;44.874;-1.092;2023-05-23T03:31:24;28.33;;;21.17;;
9783;SDS011;4931;44.874;-1.092;2023-05-23T03:33:50;30.25;;;19.48;;
9783;SDS011;4931;44.874;-1.092;2023-05-23T03:36:15;27.73;;;20.88;;
9783;SDS011;4931;44.874;-1.092;2023-05-23T03:38:41;31.85;;;21.50;;
9783;SDS011;4931;44.874;-1.092;2023-05-23T03:41:06;33.47;;;22.00;;
9783;SDS011;4931;44.874;-1.092;2023-05-23T03:43:32;31.13;;;22.40;;
9783;SDS011;4931;44.874;-1.092;2023-05-23T03:45:57;30.13;;;21.73;;
9783;SDS011;4931;44.874;-1.092;2023-05-23T03:48:23;30.65;;;21.23;;
9783;SDS011;4931;44.874;-1.092;2023-05-23T03:50:48;30.70;;;20.52;;
9783;SDS011;4931;44.874;-1.092;2023-05-23T03:53:14;31.52;;;21.13;;
9783;SDS011;4931;44.874;-1.092;2023-05-23T03:55:39;30.77;;;20.95;;
9783;SDS011;4931;44.874;-1.092;2023-05-23T03:58:06;28.00;;;20.15;;
9783;SDS011;4931;44.874;-1.092;2023-05-23T04:00:31;30.25;;;21.38;;
9783;SDS011;4931;44.874;-1.092;2023-05-23T04:02:57;29.45;;;20.38;;
9783;SDS011;4931;44.874;-1.092;2023-05-23T04:05:22;27.58;;;19.23;;
9783;SDS011;4931;44.874;-1.092;2023-05-23T04:07:48;31.55;;;20.15;;
9783;SDS011;4931;44.874;-1.092;2023-05-23T04:10:13;24.63;;;19.55;;
9783;SDS011;4931;44.874;-1.092;2023-05-23T04:12:39;25.23;;;19.10;;
9783;SDS011;4931;44.874;-1.092;2023-05-23T04:15:06;28.45;;;20.02;;
9783;SDS011;4931;44.874;-1.092;2023-05-23T04:17:32;27.15;;;20.08;;
9783;SDS011;4931;44.874;-1.092;2023-05-23T04:19:57;25.15;;;20.00;;
9783;SDS011;4931;44.874;-1.092;2023-05-23T04:22:23;27.50;;;18.67;;
9783;SDS011;4931;44.874;-1.092;2023-05-23T04:24:48;25.63;;;19.02;;
9783;SDS011;4931;44.874;-1.092;2023-05-23T04:27:14;28.30;;;19.08;;
9783;SDS011;4931;44.874;-1.092;2023-05-23T04:29:39;24.42;;;18.20;;
9783;SDS011;4931;44.874;-1.092;2023-05-23T04:32:05;27.48;;;18.80;;
9783;SDS011;4931;44.874;-1.092;2023-05-23T04:34:32;27.48;;;20.13;;
9783;SDS011;4931;44.874;-1.092;2023-05-23T04:37:01;29.33;;;19.67;;
9783;SDS011;4931;44.874;-1.092;2023-05-23T04:39:27;26.58;;;19.40;;
9783;SDS011;4931;44.874;-1.092;2023-05-23T04:41:55;28.75;;;19.70;;
9783;SDS011;4931;44.874;-1.092;2023-05-23T04:44:24;28.13;;;19.83;;
9783;SDS011;4931;44.874;-1.092;2023-05-23T04:46:54;29.30;;;19.58;;
9783;SDS011;4931;44.874;-1.092;2023-05-23T04:49:20;27.25;;;19.58;;
9783;SDS011;4931;44.874;-1.092;2023-05-23T04:51:46;28.88;;;19.30;;
9783;SDS011;4931;44.874;-1.092;2023-05-23T04:54:12;27.42;;;19.65;;
9783;SDS011;4931;44.874;-1.092;2023-05-23T04:56:38;29.13;;;20.17;;
9783;SDS011;4931;44.874;-1.092;2023-05-23T04:59:03;28.95;;;18.83;;
9783;SDS011;4931;44.874;-1.092;2023-05-23T05:01:29;26.77;;;18.67;;
9783;SDS011;4931;44.874;-1.092;2023-05-23T05:03:55;27.35;;;18.05;;
9783;SDS011;4931;44.874;-1.092;2023-05-23T05:06:21;29.55;;;19.02;;
9783;SDS011;4931;44.874;-1.092;2023-05-23T05:08:47;29.85;;;18.90;;
9783;SDS011;4931;44.874;-1.092;2023-05-23T05:11:12;32.72;;;19.88;;
9783;SDS011;4931;44.874;-1.092;2023-05-23T05:13:38;31.02;;;19.90;;
9783;SDS011;4931;44.874;-1.092;2023-05-23T05:16:03;32.38;;;20.55;;
9783;SDS011;4931;44.874;-1.092;2023-05-23T05:18:29;28.60;;;19.92;;
9783;SDS011;4931;44.874;-1.092;2023-05-23T05:20:55;31.23;;;20.30;;
9783;SDS011;4931;44.874;-1.092;2023-05-23T05:23:24;27.25;;;20.25;;
9783;SDS011;4931;44.874;-1.092;2023-05-23T05:25:52;28.25;;;19.77;;
9783;SDS011;4931;44.874;-1.092;2023-05-23T05:28:18;31.02;;;19.52;;
9783;SDS011;4931;44.874;-1.092;2023-05-23T05:30:45;32.40;;;19.85;;
9783;SDS011;4931;44.874;-1.092;2023-05-23T05:33:12;28.52;;;20.10;;
9783;SDS011;4931;44.874;-1.092;2023-05-23T05:35:38;30.95;;;18.98;;
9783;SDS011;4931;44.874;-1.092;2023-05-23T05:38:04;26.42;;;18.35;;
9783;SDS011;4931;44.874;-1.092;2023-05-23T05:40:31;27.10;;;18.23;;
9783;SDS011;4931;44.874;-1.092;2023-05-23T05:42:56;29.88;;;17.98;;
9783;SDS011;4931;44.874;-1.092;2023-05-23T05:45:22;28.83;;;18.75;;
9783;SDS011;4931;44.874;-1.092;2023-05-23T05:47:47;31.40;;;18.92;;
9783;SDS011;4931;44.874;-1.092;2023-05-23T05:50:13;26.40;;;18.10;;
9783;SDS011;4931;44.874;-1.092;2023-05-23T05:52:39;27.40;;;18.27;;
9783;SDS011;4931;44.874;-1.092;2023-05-23T05:55:06;26.27;;;18.35;;
9783;SDS011;4931;44.874;-1.092;2023-05-23T05:57:35;28.13;;;17.73;;
9783;SDS011;4931;44.874;-1.092;2023-05-23T06:00:03;27.65;;;18.27;;
9783;SDS011;4931;44.874;-1.092;2023-05-23T06:02:37;28.00;;;18.70;;
9783;SDS011;4931;44.874;-1.092;2023-05-23T06:05:04;24.67;;;18.55;;
9783;SDS011;4931;44.874;-1.092;2023-05-23T06:07:37;26.60;;;17.92;;
9783;SDS011;4931;44.874;-1.092;2023-05-23T06:10:03;28.48;;;18.30;;
9783;SDS011;4931;44.874;-1.092;2023-05-23T06:12:29;26.95;;;18.20;;
9783;SDS011;4931;44.874;-1.092;2023-05-23T06:14:54;26.33;;;17.63;;
9783;SDS011;4931;44.874;-1.092;2023-05-23T06:17:20;28.80;;;18.65;;
9783;SDS011;4931;44.874;-1.092;2023-05-23T06:19:45;28.35;;;17.83;;
9783;SDS011;4931;44.874;-1.092;2023-05-23T06:22:11;28.98;;;18.90;;
9783;SDS011;4931;44.874;-1.092;2023-05-23T06:24:36;25.85;;;18.23;;
9783;SDS011;4931;44.874;-1.092;2023-05-23T06:27:02;27.50;;;18.02;;
9783;SDS011;4931;44.874;-1.092;2023-05-23T06:29:28;30.27;;;19.05;;
9783;SDS011;4931;44.874;-1.092;2023-05-23T06:31:55;31.38;;;19.23;;
9783;SDS011;4931;44.874;-1.092;2023-05-23T06:34:20;28.52;;;19.05;;
9783;SDS011;4931;44.874;-1.092;2023-05-23T06:36:46;26.40;;;19.35;;
9783;SDS011;4931;44.874;-1.092;2023-05-23T06:39:12;28.25;;;19.05;;
9783;SDS011;4931;44.874;-1.092;2023-05-23T06:41:38;26.20;;;18.42;;
9783;SDS011;4931;44.874;-1.092;2023-05-23T06:44:04;29.40;;;18.48;;
9783;SDS011;4931;44.874;-1.092;2023-05-23T06:46:29;28.48;;;19.25;;
9783;SDS011;4931;44.874;-1.092;2023-05-23T06:48:55;28.23;;;18.45;;
9783;SDS011;4931;44.874;-1.092;2023-05-23T06:51:21;25.50;;;17.27;;
9783;SDS011;4931;44.874;-1.092;2023-05-23T06:53:49;28.05;;;17.48;;
9783;SDS011;4931;44.874;-1.092;2023-05-23T06:56:15;24.88;;;17.85;;
9783;SDS011;4931;44.874;-1.092;2023-05-23T06:58:40;25.83;;;17.77;;
9783;SDS011;4931;44.874;-1.092;2023-05-23T07:01:06;27.27;;;18.75;;
9783;SDS011;4931;44.874;-1.092;2023-05-23T07:03:31;25.92;;;17.17;;
9783;SDS011;4931;44.874;-1.092;2023-05-23T07:05:57;26.55;;;18.27;;
9783;SDS011;4931;44.874;-1.092;2023-05-23T07:08:23;27.65;;;17.63;;
9783;SDS011;4931;44.874;-1.092;2023-05-23T07:10:49;24.30;;;17.10;;
9783;SDS011;4931;44.874;-1.092;2023-05-23T07:13:14;23.98;;;17.08;;
9783;SDS011;4931;44.874;-1.092;2023-05-23T07:15:40;24.75;;;17.15;;
9783;SDS011;4931;44.874;-1.092;2023-05-23T07:18:05;23.35;;;16.23;;
9783;SDS011;4931;44.874;-1.092;2023-05-23T07:20:34;20.92;;;15.45;;
9783;SDS011;4931;44.874;-1.092;2023-05-23T07:22:59;24.70;;;15.52;;
9783;SDS011;4931;44.874;-1.092;2023-05-23T07:25:25;21.05;;;15.57;;
9783;SDS011;4931;44.874;-1.092;2023-05-23T07:27:51;24.15;;;15.32;;
9783;SDS011;4931;44.874;-1.092;2023-05-23T07:30:18;23.73;;;14.18;;
9783;SDS011;4931;44.874;-1.092;2023-05-23T07:32:45;23.90;;;14.70;;
9783;SDS011;4931;44.874;-1.092;2023-05-23T07:35:12;24.27;;;14.52;;
9783;SDS011;4931;44.874;-1.092;2023-05-23T07:37:37;24.70;;;14.80;;
9783;SDS011;4931;44.874;-1.092;2023-05-23T07:40:03;20.25;;;14.85;;
9783;SDS011;4931;44.874;-1.092;2023-05-23T07:42:29;20.92;;;14.68;;
9783;SDS011;4931;44.874;-1.092;2023-05-23T07:44:55;19.45;;;14.40;;
9783;SDS011;4931;44.874;-1.092;2023-05-23T07:47:20;20.70;;;13.18;;
9783;SDS011;4931;44.874;-1.092;2023-05-23T07:49:46;25.10;;;14.90;;
9783;SDS011;4931;44.874;-1.092;2023-05-23T07:52:11;22.27;;;14.27;;
9783;SDS011;4931;44.874;-1.092;2023-05-23T07:54:37;21.20;;;13.93;;
9783;SDS011;4931;44.874;-1.092;2023-05-23T07:57:02;19.33;;;13.90;;
9783;SDS011;4931;44.874;-1.092;2023-05-23T07:59:28;20.83;;;15.10;;
9783;SDS011;4931;44.874;-1.092;2023-05-23T08:01:54;20.92;;;15.07;;
9783;SDS011;4931;44.874;-1.092;2023-05-23T08:04:20;21.48;;;14.43;;
9783;SDS011;4931;44.874;-1.092;2023-05-23T08:06:45;20.52;;;14.27;;
9783;SDS011;4931;44.874;-1.092;2023-05-23T08:09:13;18.60;;;13.52;;
9783;SDS011;4931;44.874;-1.092;2023-05-23T08:11:39;23.17;;;13.50;;
9783;SDS011;4931;44.874;-1.092;2023-05-23T08:14:05;19.67;;;12.77;;
9783;SDS011;4931;44.874;-1.092;2023-05-23T08:16:30;21.55;;;13.70;;
9783;SDS011;4931;44.874;-1.092;2023-05-23T08:18:56;17.52;;;12.82;;
9783;SDS011;4931;44.874;-1.092;2023-05-23T08:21:22;18.08;;;12.82;;
9783;SDS011;4931;44.874;-1.092;2023-05-23T08:23:48;17.83;;;12.40;;
9783;SDS011;4931;44.874;-1.092;2023-05-23T08:26:13;16.75;;;12.35;;
9783;SDS011;4931;44.874;-1.092;2023-05-23T08:28:39;17.98;;;12.43;;
9783;SDS011;4931;44.874;-1.092;2023-05-23T08:31:05;23.08;;;12.55;;
9783;SDS011;4931;44.874;-1.092;2023-05-23T08:33:31;17.92;;;12.55;;
9783;SDS011;4931;44.874;-1.092;2023-05-23T08:35:57;18.75;;;12.48;;
9783;SDS011;4931;44.874;-1.092;2023-05-23T08:38:22;17.63;;;12.95;;
9783;SDS011;4931;44.874;-1.092;2023-05-23T08:40:51;18.58;;;12.52;;
9783;SDS011;4931;44.874;-1.092;2023-05-23T08:43:17;16.05;;;11.35;;
9783;SDS011;4931;44.874;-1.092;2023-05-23T08:45:43;17.58;;;11.60;;
9783;SDS011;4931;44.874;-1.092;2023-05-23T08:48:10;18.88;;;11.30;;
9783;SDS011;4931;44.874;-1.092;2023-05-23T08:50:38;16.00;;;11.30;;
9783;SDS011;4931;44.874;-1.092;2023-05-23T08:53:05;20.60;;;11.57;;
9783;SDS011;4931;44.874;-1.092;2023-05-23T08:55:33;17.13;;;12.07;;
9783;SDS011;4931;44.874;-1.092;2023-05-23T08:57:59;18.08;;;11.60;;
9783;SDS011;4931;44.874;-1.092;2023-05-23T09:00:25;16.05;;;11.68;;
9783;SDS011;4931;44.874;-1.092;2023-05-23T09:02:52;15.48;;;11.38;;
9783;SDS011;4931;44.874;-1.092;2023-05-23T09:05:18;17.13;;;11.25;;
9783;SDS011;4931;44.874;-1.092;2023-05-23T09:07:45;17.60;;;11.35;;
9783;SDS011;4931;44.874;-1.092;2023-05-23T09:12:41;18.58;;;11.65;;
9783;SDS011;4931;44.874;-1.092;2023-05-23T09:15:08;17.20;;;12.32;;
9783;SDS011;4931;44.874;-1.092;2023-05-23T09:17:34;15.85;;;11.60;;
9783;SDS011;4931;44.874;-1.092;2023-05-23T09:20:09;17.48;;;11.57;;
9783;SDS011;4931;44.874;-1.092;2023-05-23T09:22:37;21.00;;;10.95;;
9783;SDS011;4931;44.874;-1.092;2023-05-23T09:25:03;15.82;;;11.65;;
9783;SDS011;4931;44.874;-1.092;2023-05-23T09:27:29;12.95;;;10.52;;
9783;SDS011;4931;44.874;-1.092;2023-05-23T09:29:55;16.00;;;10.43;;
9783;SDS011;4931;44.874;-1.092;2023-05-23T09:32:20;14.80;;;10.68;;
9783;SDS011;4931;44.874;-1.092;2023-05-23T09:34:56;16.70;;;10.85;;
9783;SDS011;4931;44.874;-1.092;2023-05-23T09:39:59;16.00;;;10.70;;
9783;SDS011;4931;44.874;-1.092;2023-05-23T09:42:30;15.25;;;10.60;;
9783;SDS011;4931;44.874;-1.092;2023-05-23T09:44:59;16.08;;;10.30;;
9783;SDS011;4931;44.874;-1.092;2023-05-23T09:47:24;15.55;;;10.10;;
9783;SDS011;4931;44.874;-1.092;2023-05-23T09:49:51;18.98;;;10.70;;
9783;SDS011;4931;44.874;-1.092;2023-05-23T09:52:16;12.93;;;9.73;;
9783;SDS011;4931;44.874;-1.092;2023-05-23T09:54:44;16.90;;;10.23;;
9783;SDS011;4931;44.874;-1.092;2023-05-23T09:57:10;14.88;;;9.90;;
9783;SDS011;4931;44.874;-1.092;2023-05-23T09:59:38;12.75;;;10.40;;
9783;SDS011;4931;44.874;-1.092;2023-05-23T10:02:07;14.73;;;10.45;;
9783;SDS011;4931;44.874;-1.092;2023-05-23T10:04:36;14.85;;;9.93;;
9783;SDS011;4931;44.874;-1.092;2023-05-23T10:07:12;16.42;;;10.20;;
9783;SDS011;4931;44.874;-1.092;2023-05-23T10:09:40;13.48;;;9.50;;
9783;SDS011;4931;44.874;-1.092;2023-05-23T10:15:00;12.35;;;9.18;;
9783;SDS011;4931;44.874;-1.092;2023-05-23T10:17:31;12.57;;;9.45;;
9783;SDS011;4931;44.874;-1.092;2023-05-23T10:20:04;14.88;;;10.60;;
9783;SDS011;4931;44.874;-1.092;2023-05-23T10:22:35;14.70;;;10.18;;
9783;SDS011;4931;44.874;-1.092;2023-05-23T10:25:04;16.63;;;12.52;;
9783;SDS011;4931;44.874;-1.092;2023-05-23T10:27:31;17.05;;;10.48;;
9783;SDS011;4931;44.874;-1.092;2023-05-23T10:29:59;16.67;;;10.75;;
9783;SDS011;4931;44.874;-1.092;2023-05-23T10:32:26;15.43;;;10.20;;
9783;SDS011;4931;44.874;-1.092;2023-05-23T10:37:38;14.95;;;10.68;;
9783;SDS011;4931;44.874;-1.092;2023-05-23T10:40:15;15.70;;;11.15;;
9783;SDS011;4931;44.874;-1.092;2023-05-23T10:45:28;16.15;;;11.27;;
9783;SDS011;4931;44.874;-1.092;2023-05-23T10:47:54;17.02;;;11.02;;
9783;SDS011;4931;44.874;-1.092;2023-05-23T10:50:29;17.85;;;11.38;;
9783;SDS011;4931;44.874;-1.092;2023-05-23T10:52:57;16.38;;;11.60;;
9783;SDS011;4931;44.874;-1.092;2023-05-23T10:55:25;16.52;;;12.00;;
9783;SDS011;4931;44.874;-1.092;2023-05-23T10:58:11;13.20;;;11.55;;
9783;SDS011;4931;44.874;-1.092;2023-05-23T11:00:49;15.93;;;11.98;;
9783;SDS011;4931;44.874;-1.092;2023-05-23T11:03:17;19.27;;;11.90;;
9783;SDS011;4931;44.874;-1.092;2023-05-23T11:05:51;18.23;;;12.00;;
9783;SDS011;4931;44.874;-1.092;2023-05-23T11:08:18;18.45;;;12.18;;
9783;SDS011;4931;44.874;-1.092;2023-05-23T11:11:00;15.40;;;11.27;;
9783;SDS011;4931;44.874;-1.092;2023-05-23T11:14:12;17.70;;;12.55;;
9783;SDS011;4931;44.874;-1.092;2023-05-23T11:16:24;17.30;;;12.43;;
9783;SDS011;4931;44.874;-1.092;2023-05-23T11:18:49;18.92;;;13.05;;
9783;SDS011;4931;44.874;-1.092;2023-05-23T11:21:15;16.65;;;12.20;;
9783;SDS011;4931;44.874;-1.092;2023-05-23T11:23:42;15.23;;;11.90;;
9783;SDS011;4931;44.874;-1.092;2023-05-23T11:28:55;16.77;;;12.77;;
9783;SDS011;4931;44.874;-1.092;2023-05-23T11:31:22;16.55;;;12.90;;
9783;SDS011;4931;44.874;-1.092;2023-05-23T11:33:51;14.30;;;11.93;;
9783;SDS011;4931;44.874;-1.092;2023-05-23T11:36:17;14.70;;;11.82;;
9783;SDS011;4931;44.874;-1.092;2023-05-23T11:38:42;14.20;;;11.88;;
9783;SDS011;4931;44.874;-1.092;2023-05-23T11:41:08;13.70;;;12.07;;
9783;SDS011;4931;44.874;-1.092;2023-05-23T11:43:33;14.75;;;12.80;;
9783;SDS011;4931;44.874;-1.092;2023-05-23T11:46:06;15.35;;;12.02;;
9783;SDS011;4931;44.874;-1.092;2023-05-23T11:48:35;17.52;;;11.98;;
9783;SDS011;4931;44.874;-1.092;2023-05-23T11:51:00;24.92;;;14.50;;
9783;SDS011;4931;44.874;-1.092;2023-05-23T11:53:26;20.67;;;14.95;;
9783;SDS011;4931;44.874;-1.092;2023-05-23T11:58:25;17.00;;;13.68;;
9783;SDS011;4931;44.874;-1.092;2023-05-23T12:00:59;18.42;;;13.25;;
9783;SDS011;4931;44.874;-1.092;2023-05-23T12:03:29;17.75;;;13.80;;
9783;SDS011;4931;44.874;-1.092;2023-05-23T12:05:56;19.63;;;14.88;;
9783;SDS011;4931;44.874;-1.092;2023-05-23T12:08:25;20.33;;;13.60;;
9783;SDS011;4931;44.874;-1.092;2023-05-23T12:10:51;18.58;;;14.05;;
9783;SDS011;4931;44.874;-1.092;2023-05-23T12:13:22;17.13;;;13.88;;
9783;SDS011;4931;44.874;-1.092;2023-05-23T12:15:49;16.60;;;13.70;;
9783;SDS011;4931;44.874;-1.092;2023-05-23T12:18:18;15.70;;;12.15;;
9783;SDS011;4931;44.874;-1.092;2023-05-23T12:20:44;18.60;;;14.15;;
9783;SDS011;4931;44.874;-1.092;2023-05-23T12:23:16;18.95;;;13.57;;
9783;SDS011;4931;44.874;-1.092;2023-05-23T12:25:43;16.38;;;13.10;;
9783;SDS011;4931;44.874;-1.092;2023-05-23T12:28:09;18.50;;;12.85;;
9783;SDS011;4931;44.874;-1.092;2023-05-23T12:30:41;19.23;;;14.10;;
9783;SDS011;4931;44.874;-1.092;2023-05-23T12:33:08;21.07;;;14.03;;
9783;SDS011;4931;44.874;-1.092;2023-05-23T12:35:33;14.80;;;12.98;;
9783;SDS011;4931;44.874;-1.092;2023-05-23T12:37:59;15.60;;;13.05;;
9783;SDS011;4931;44.874;-1.092;2023-05-23T12:40:25;18.80;;;13.80;;
9783;SDS011;4931;44.874;-1.092;2023-05-23T12:45:32;17.83;;;14.10;;
9783;SDS011;4931;44.874;-1.092;2023-05-23T12:47:58;15.10;;;12.65;;
9783;SDS011;4931;44.874;-1.092;2023-05-23T12:50:24;18.30;;;13.35;;
9783;SDS011;4931;44.874;-1.092;2023-05-23T12:52:50;19.70;;;12.93;;
9783;SDS011;4931;44.874;-1.092;2023-05-23T12:55:16;17.02;;;12.82;;
9783;SDS011;4931;44.874;-1.092;2023-05-23T12:57:42;20.67;;;13.68;;
9783;SDS011;4931;44.874;-1.092;2023-05-23T13:00:08;19.08;;;13.68;;
9783;SDS011;4931;44.874;-1.092;2023-05-23T13:02:34;19.45;;;13.32;;
9783;SDS011;4931;44.874;-1.092;2023-05-23T13:05:00;18.55;;;13.90;;
9783;SDS011;4931;44.874;-1.092;2023-05-23T13:07:25;19.58;;;13.43;;
9783;SDS011;4931;44.874;-1.092;2023-05-23T13:09:51;19.50;;;13.55;;
9783;SDS011;4931;44.874;-1.092;2023-05-23T13:12:16;17.63;;;13.57;;
9783;SDS011;4931;44.874;-1.092;2023-05-23T13:14:42;18.90;;;13.65;;
9783;SDS011;4931;44.874;-1.092;2023-05-23T13:17:08;17.45;;;12.95;;
9783;SDS011;4931;44.874;-1.092;2023-05-23T13:19:33;18.58;;;13.50;;
9783;SDS011;4931;44.874;-1.092;2023-05-23T13:21:58;18.33;;;13.98;;
9783;SDS011;4931;44.874;-1.092;2023-05-23T13:24:25;19.67;;;14.38;;
9783;SDS011;4931;44.874;-1.092;2023-05-23T13:26:51;18.30;;;13.60;;
9783;SDS011;4931;44.874;-1.092;2023-05-23T13:29:17;17.70;;;13.35;;
9783;SDS011;4931;44.874;-1.092;2023-05-23T13:31:42;19.75;;;13.80;;
9783;SDS011;4931;44.874;-1.092;2023-05-23T13:34:08;19.33;;;13.70;;
9783;SDS011;4931;44.874;-1.092;2023-05-23T13:36:33;17.60;;;12.05;;
9783;SDS011;4931;44.874;-1.092;2023-05-23T13:38:59;19.42;;;13.40;;
9783;SDS011;4931;44.874;-1.092;2023-05-23T13:41:25;18.58;;;13.50;;
9783;SDS011;4931;44.874;-1.092;2023-05-23T13:43:51;18.33;;;13.30;;
9783;SDS011;4931;44.874;-1.092;2023-05-23T13:46:17;16.45;;;13.02;;
9783;SDS011;4931;44.874;-1.092;2023-05-23T13:48:42;19.58;;;13.73;;
9783;SDS011;4931;44.874;-1.092;2023-05-23T13:51:08;20.90;;;13.48;;
9783;SDS011;4931;44.874;-1.092;2023-05-23T13:53:33;16.45;;;13.18;;
9783;SDS011;4931;44.874;-1.092;2023-05-23T13:55:59;18.55;;;12.30;;
9783;SDS011;4931;44.874;-1.092;2023-05-23T13:58:25;19.65;;;12.23;;
9783;SDS011;4931;44.874;-1.092;2023-05-23T14:00:51;16.10;;;12.25;;
9783;SDS011;4931;44.874;-1.092;2023-05-23T14:03:17;18.73;;;12.93;;
9783;SDS011;4931;44.874;-1.092;2023-05-23T14:05:43;17.73;;;12.57;;
9783;SDS011;4931;44.874;-1.092;2023-05-23T14:08:09;17.90;;;13.48;;
9783;SDS011;4931;44.874;-1.092;2023-05-23T14:10:37;21.63;;;14.48;;
9783;SDS011;4931;44.874;-1.092;2023-05-23T14:13:02;18.25;;;13.18;;
9783;SDS011;4931;44.874;-1.092;2023-05-23T14:15:28;18.90;;;12.68;;
9783;SDS011;4931;44.874;-1.092;2023-05-23T14:17:53;20.25;;;13.50;;
9783;SDS011;4931;44.874;-1.092;2023-05-23T14:20:23;20.00;;;13.45;;
9783;SDS011;4931;44.874;-1.092;2023-05-23T14:22:51;20.45;;;15.48;;
9783;SDS011;4931;44.874;-1.092;2023-05-23T14:25:17;18.60;;;13.63;;
9783;SDS011;4931;44.874;-1.092;2023-05-23T14:27:42;18.58;;;13.65;;
9783;SDS011;4931;44.874;-1.092;2023-05-23T14:30:08;16.92;;;13.25;;
9783;SDS011;4931;44.874;-1.092;2023-05-23T14:32:34;19.35;;;13.65;;
9783;SDS011;4931;44.874;-1.092;2023-05-23T14:35:06;19.98;;;13.80;;
9783;SDS011;4931;44.874;-1.092;2023-05-23T14:37:34;21.02;;;13.32;;
9783;SDS011;4931;44.874;-1.092;2023-05-23T14:40:00;17.15;;;13.00;;
9783;SDS011;4931;44.874;-1.092;2023-05-23T14:42:26;18.35;;;12.70;;
9783;SDS011;4931;44.874;-1.092;2023-05-23T14:44:52;16.90;;;12.80;;
9783;SDS011;4931;44.874;-1.092;2023-05-23T14:47:18;14.25;;;11.65;;
9783;SDS011;4931;44.874;-1.092;2023-05-23T14:49:44;18.63;;;12.30;;
9783;SDS011;4931;44.874;-1.092;2023-05-23T14:52:09;18.00;;;12.50;;
9783;SDS011;4931;44.874;-1.092;2023-05-23T14:54:36;18.08;;;12.77;;
9783;SDS011;4931;44.874;-1.092;2023-05-23T14:57:05;19.67;;;12.27;;